Time;durP1;ratioP1;P1;durP2;ratioP2;P2;SDS_P1;SDS_P2;PMS_P1;PMS_P2;Temp;Humidity;BMP_temperature;BMP_pressure;BME280_temperature;BME280_humidity;BME280_pressure;Samples;Min_cycle;Max_cycle;Signal;HPM_P1;HPM_P2
2021/05/20 00:00:18;;;;;;;;;;;;;;;6.71;87.04;96542.13;5113788;28;19924;-73
2021/05/20 00:02:46;;;;;;;;;;;;;;;6.81;86.70;96541.72;5114131;28;19962;-73
2021/05/20 00:05:12;;;;;;;;;;;;;;;6.38;88.85;96543.94;5114441;28;19931;-73
2021/05/20 00:07:38;;;;;;;;;;;;;;;6.29;89.00;96546.75;5096890;28;19939;-73
2021/05/20 00:10:08;;;;;;;;;;;;;;;6.18;89.69;96544.72;5114537;28;19985;-72
2021/05/20 00:12:34;;;;;;;;;;;;;;;6.33;89.75;96549.78;5101016;28;19945;-73
2021/05/20 00:14:59;;;;;;;;;;;;;;;6.26;90.04;96556.81;5108768;28;19920;-74
2021/05/20 00:17:25;;;;;;;;;;;;;;;6.19;90.63;96550.75;5115635;28;19926;-74
2021/05/20 00:19:50;;;;;;;;;;;;;;;6.16;90.26;96548.56;5113145;28;20366;-72
2021/05/20 00:22:16;;;;;;;;;;;;;;;6.21;90.80;96548.78;5113324;28;20006;-73
2021/05/20 00:24:41;;;;;;;;;;;;;;;6.36;89.92;96545.97;5095063;28;20294;-74
2021/05/20 00:27:07;;;;;;;;;;;;;;;6.31;90.62;96549.19;5113010;28;19962;-74
2021/05/20 00:29:33;;;;;;;;;;;;;;;6.47;89.97;96548.78;5114480;28;19988;-72
2021/05/20 00:31:58;;;;;;;;;;;;;;;6.30;90.06;96552.81;5096218;28;19924;-70
2021/05/20 00:34:24;;;;;;;;;;;;;;;6.35;90.51;96558.22;5113954;28;19931;-70
2021/05/20 00:36:49;;;;;;;;;;;;;;;6.23;90.62;96557.19;5113199;28;19977;-70
2021/05/20 00:39:14;;;;;;;;;;;;;;;6.35;90.90;96568.69;5112959;28;19923;-70
2021/05/20 00:41:40;;;;;;;;;;;;;;;6.39;90.51;96562.03;5112893;28;19931;-69
2021/05/20 00:44:06;;;;;;;;;;;;;;;6.31;90.61;96568.28;5112755;28;19920;-70
2021/05/20 00:46:32;;;;;;;;;;;;;;;6.45;90.49;96566.47;5113045;28;19924;-69
2021/05/20 00:48:57;;;;;;;;;;;;;;;6.38;90.51;96565.66;5113165;28;19977;-69
2021/05/20 00:51:22;;;;;;;;;;;;;;;6.45;89.99;96569.06;5112652;28;20286;-70
2021/05/20 00:53:48;;;;;;;;;;;;;;;6.38;90.03;96564.84;5112787;28;20366;-69
2021/05/20 00:56:15;;;;;;;;;;;;;;;6.41;90.54;96561.84;5112728;28;19919;-69
2021/05/20 00:58:42;;;;;;;;;;;;;;;6.43;90.60;96565.06;5112457;28;19927;-70
2021/05/20 01:01:09;;;;;;;;;;;;;;;6.40;89.95;96568.88;5114016;28;19989;-70
2021/05/20 01:03:34;;;;;;;;;;;;;;;6.43;90.51;96573.69;5114820;28;19920;-73
2021/05/20 01:06:02;;;;;;;;;;;;;;;6.40;90.92;96568.88;5096193;28;19943;-70
2021/05/20 01:08:31;;;;;;;;;;;;;;;6.39;90.60;96572.50;5113464;28;19931;-69
2021/05/20 01:10:57;;;;;;;;;;;;;;;6.31;90.68;96570.88;5112484;28;20386;-67
2021/05/20 01:13:23;;;;;;;;;;;;;;;6.42;90.63;96568.69;5112364;28;19924;-68
2021/05/20 01:15:48;;;;;;;;;;;;;;;6.49;90.74;96575.50;5113334;28;19944;-68
2021/05/20 01:18:17;;;;;;;;;;;;;;;6.65;89.91;96569.06;5113163;28;19919;-68
2021/05/20 01:20:44;;;;;;;;;;;;;;;6.47;91.08;96567.06;5114022;28;20285;-68
2021/05/20 01:23:10;;;;;;;;;;;;;;;6.54;90.43;96569.69;5095226;28;20397;-69
2021/05/20 01:25:37;;;;;;;;;;;;;;;6.41;90.71;96560.03;5095774;28;19962;-70
2021/05/20 01:28:03;;;;;;;;;;;;;;;6.36;91.56;96564.25;5117429;28;19919;-70
2021/05/20 01:30:29;;;;;;;;;;;;;;;6.45;90.39;96561.22;5114691;28;19919;-69
2021/05/20 01:32:55;;;;;;;;;;;;;;;6.30;91.37;96558.84;5117293;28;19980;-70
2021/05/20 01:35:23;;;;;;;;;;;;;;;6.32;91.61;96550.78;5119380;28;20244;-68
2021/05/20 01:37:50;;;;;;;;;;;;;;;6.35;91.49;96566.06;5119883;28;19920;-69
2021/05/20 01:40:15;;;;;;;;;;;;;;;6.53;90.65;96558.44;5117074;28;19924;-69
2021/05/20 01:42:41;;;;;;;;;;;;;;;6.53;90.81;96561.03;5115814;28;20207;-69
2021/05/20 01:45:07;;;;;;;;;;;;;;;6.53;90.84;96568.88;5116374;28;19920;-67
2021/05/20 01:47:32;;;;;;;;;;;;;;;6.41;91.19;96564.47;5116191;28;20366;-69
2021/05/20 01:49:58;;;;;;;;;;;;;;;6.53;90.94;96563.66;5116250;28;19920;-69
2021/05/20 01:52:26;;;;;;;;;;;;;;;6.58;90.24;96569.09;5116064;28;19919;-68
2021/05/20 01:54:52;;;;;;;;;;;;;;;6.47;90.87;96567.06;5097104;28;19977;-70
2021/05/20 01:57:18;;;;;;;;;;;;;;;6.49;90.29;96567.66;5116040;28;20295;-72
2021/05/20 01:59:46;;;;;;;;;;;;;;;6.42;91.23;96559.03;5115626;28;19958;-72
2021/05/20 02:02:14;;;;;;;;;;;;;;;6.39;91.65;96569.06;5097157;28;19955;-72
2021/05/20 02:04:39;;;;;;;;;;;;;;;6.57;90.73;96572.72;5117812;28;19920;-72
2021/05/20 02:07:05;;;;;;;;;;;;;;;6.45;90.88;96566.47;5125903;28;19945;-70
2021/05/20 02:09:30;;;;;;;;;;;;;;;6.35;91.19;96570.47;5120146;28;20362;-71
2021/05/20 02:11:56;;;;;;;;;;;;;;;6.31;91.70;96578.72;5116363;28;19972;-69
2021/05/20 02:14:25;;;;;;;;;;;;;;;6.23;91.16;96580.72;5115844;28;20316;-70
2021/05/20 02:16:50;;;;;;;;;;;;;;;6.28;91.56;96570.47;5115749;28;20034;-70
2021/05/20 02:19:16;;;;;;;;;;;;;;;6.03;91.83;96568.44;5115547;28;19963;-70
2021/05/20 02:21:41;;;;;;;;;;;;;;;6.00;92.48;96574.03;5097151;28;20010;-72
2021/05/20 02:24:07;;;;;;;;;;;;;;;5.96;92.29;96572.03;5115520;28;19927;-72
2021/05/20 02:26:32;;;;;;;;;;;;;;;6.03;91.90;96567.63;5115913;28;19919;-72
2021/05/20 02:29:01;;;;;;;;;;;;;;;6.08;91.09;96567.00;5115585;28;19920;-71
2021/05/20 02:31:27;;;;;;;;;;;;;;;6.08;91.75;96574.84;5115240;28;19941;-69
2021/05/20 02:33:52;;;;;;;;;;;;;;;5.96;91.80;96572.81;5096568;28;19919;-68
2021/05/20 02:36:17;;;;;;;;;;;;;;;5.95;91.59;96576.44;5115513;28;19919;-67
2021/05/20 02:38:43;;;;;;;;;;;;;;;5.96;92.21;96582.47;5115461;28;19926;-68
2021/05/20 02:41:08;;;;;;;;;;;;;;;6.04;91.31;96580.50;5114942;28;19942;-69
2021/05/20 02:43:34;;;;;;;;;;;;;;;6.14;90.67;96580.13;5118541;28;19949;-69
2021/05/20 02:46:01;;;;;;;;;;;;;;;5.94;91.18;96576.66;5123653;28;19920;-70
2021/05/20 02:48:26;;;;;;;;;;;;;;;5.85;91.78;96570.75;5107580;28;20493;-72
2021/05/20 02:50:51;;;;;;;;;;;;;;;5.80;92.05;96575.75;5118589;28;19942;-72
2021/05/20 02:53:17;;;;;;;;;;;;;;;5.76;91.83;96569.34;5114838;28;19926;-71
2021/05/20 02:55:42;;;;;;;;;;;;;;;5.67;92.64;96583.56;5117333;28;19969;-72
2021/05/20 02:58:08;;;;;;;;;;;;;;;5.89;91.60;96581.63;5117605;28;19919;-73
2021/05/20 03:00:35;;;;;;;;;;;;;;;5.75;91.61;96581.56;5116453;28;19920;-71
2021/05/20 03:03:02;;;;;;;;;;;;;;;5.67;92.90;96573.13;5096235;28;20008;-70
2021/05/20 03:05:29;;;;;;;;;;;;;;;5.63;92.60;96577.91;5114891;28;19998;-70
2021/05/20 03:07:55;;;;;;;;;;;;;;;5.67;92.09;96583.56;5114864;28;19927;-71
2021/05/20 03:10:20;;;;;;;;;;;;;;;5.64;92.07;96579.53;5114839;28;19920;-71
2021/05/20 03:12:46;;;;;;;;;;;;;;;5.69;92.69;96586.78;5096405;28;20161;-71
2021/05/20 03:15:11;;;;;;;;;;;;;;;5.66;92.59;96582.75;5114591;28;19924;-72
2021/05/20 03:17:37;;;;;;;;;;;;;;;5.71;92.43;96576.97;5114537;28;19980;-72
2021/05/20 03:20:07;;;;;;;;;;;;;;;5.66;92.66;96584.56;5096151;28;20038;-71
2021/05/20 03:22:32;;;;;;;;;;;;;;;5.57;92.89;96583.91;5115715;28;19929;-71
2021/05/20 03:24:58;;;;;;;;;;;;;;;5.65;92.47;96585.53;5096957;28;19919;-72
2021/05/20 03:27:23;;;;;;;;;;;;;;;5.57;92.62;96577.91;5096872;28;20283;-72
2021/05/20 03:29:49;;;;;;;;;;;;;;;5.53;92.09;96585.31;5114851;28;19920;-73
2021/05/20 03:32:14;;;;;;;;;;;;;;;5.44;92.61;96576.03;5114785;28;19976;-72
2021/05/20 03:34:39;;;;;;;;;;;;;;;5.39;93.10;96581.84;5114472;28;19919;-71
2021/05/20 03:37:06;;;;;;;;;;;;;;;5.46;92.73;96577.44;5114317;28;19920;-70
2021/05/20 03:39:31;;;;;;;;;;;;;;;5.47;93.17;96584.28;5114793;28;19972;-70
2021/05/20 03:41:59;;;;;;;;;;;;;;;5.55;92.53;96579.91;5097863;28;19919;-72
2021/05/20 03:44:24;;;;;;;;;;;;;;;5.60;92.64;96585.34;5114140;28;20353;-69
2021/05/20 03:46:50;;;;;;;;;;;;;;;5.64;92.47;96578.72;5114133;28;19919;-69
2021/05/20 03:49:15;;;;;;;;;;;;;;;5.78;91.32;96575.97;5113522;28;19920;-70
2021/05/20 03:51:43;;;;;;;;;;;;;;;5.70;91.71;96577.94;5113748;28;19977;-72
2021/05/20 03:54:09;;;;;;;;;;;;;;;5.69;91.16;96576.31;5094745;28;19965;-71
2021/05/20 03:56:35;;;;;;;;;;;;;;;5.48;92.10;96580.66;5095315;28;20402;-71
2021/05/20 03:59:00;;;;;;;;;;;;;;;5.49;92.18;96591.94;5107770;28;20105;-71
2021/05/20 04:01:25;;;;;;;;;;;;;;;5.61;91.21;96595.59;5114301;28;20355;-72
2021/05/20 04:03:51;;;;;;;;;;;;;;;5.60;91.92;96601.00;5113995;28;19931;-72
2021/05/20 04:06:16;;;;;;;;;;;;;;;5.57;91.34;96599.56;5113493;28;19920;-72
2021/05/20 04:08:42;;;;;;;;;;;;;;;5.52;91.73;96596.75;5108896;27;19927;-70
2021/05/20 04:11:08;;;;;;;;;;;;;;;5.51;92.82;96595.13;5105120;28;19923;-71
2021/05/20 04:13:34;;;;;;;;;;;;;;;5.62;91.91;96591.16;5101042;28;19923;-69
2021/05/20 04:16:00;;;;;;;;;;;;;;;5.70;91.18;96599.63;5111690;28;19955;-67
2021/05/20 04:18:26;;;;;;;;;;;;;;;5.65;91.71;96598.59;5103466;28;19927;-68
2021/05/20 04:20:51;;;;;;;;;;;;;;;5.79;90.97;96603.66;5112512;28;19932;-66
2021/05/20 04:23:17;;;;;;;;;;;;;;;5.75;91.08;96604.25;5094313;28;19920;-66
2021/05/20 04:25:43;;;;;;;;;;;;;;;5.85;90.94;96615.13;5113785;28;19920;-66
2021/05/20 04:28:09;;;;;;;;;;;;;;;5.82;90.88;96614.75;5112687;28;19920;-67
2021/05/20 04:30:35;;;;;;;;;;;;;;;5.76;90.90;96611.09;5101697;28;20362;-67
2021/05/20 04:33:00;;;;;;;;;;;;;;;5.78;91.38;96622.94;5098630;28;19943;-66
2021/05/20 04:35:26;;;;;;;;;;;;;;;5.82;91.47;96628.59;5113560;28;20026;-67
2021/05/20 04:37:51;;;;;;;;;;;;;;;5.88;90.83;96621.78;5112775;28;19930;-69
2021/05/20 04:40:16;;;;;;;;;;;;;;;6.00;90.12;96625.47;5112519;28;19920;-70
2021/05/20 04:42:42;;;;;;;;;;;;;;;5.93;90.17;96635.09;5112587;28;19941;-66
2021/05/20 04:45:09;;;;;;;;;;;;;;;5.80;91.29;96635.81;5113273;28;19920;-65
2021/05/20 04:47:34;;;;;;;;;;;;;;;5.96;90.83;96625.03;5094144;28;19919;-70
2021/05/20 04:50:00;;;;;;;;;;;;;;;6.17;90.29;96641.59;5113165;28;19972;-71
2021/05/20 04:52:25;;;;;;;;;;;;;;;6.07;89.74;96646.38;5096414;28;19990;-72
2021/05/20 04:54:51;;;;;;;;;;;;;;;6.09;90.09;96650.41;5113634;28;19977;-72
2021/05/20 04:57:16;;;;;;;;;;;;;;;6.24;90.38;96648.44;5114214;28;19927;-71
2021/05/20 04:59:41;;;;;;;;;;;;;;;6.52;89.01;96648.31;5113981;28;20362;-71
2021/05/20 05:02:08;;;;;;;;;;;;;;;7.39;86.28;96654.31;5095948;28;20371;-72
2021/05/20 05:04:35;;;;;;;;;;;;;;;7.61;84.53;96660.09;5115132;28;19920;-72
2021/05/20 05:07:01;;;;;;;;;;;;;;;8.37;82.64;96654.16;5101539;28;19981;-69
2021/05/20 05:09:26;;;;;;;;;;;;;;;8.98;80.52;96663.22;5112023;28;20271;-71
2021/05/20 05:11:51;;;;;;;;;;;;;;;8.67;79.55;96670.94;5098794;28;20032;-72
2021/05/20 05:14:17;;;;;;;;;;;;;;;8.30;81.84;96663.88;5100818;28;20026;-71
2021/05/20 05:16:42;;;;;;;;;;;;;;;8.15;81.21;96664.94;5111950;28;19962;-67
2021/05/20 05:19:09;;;;;;;;;;;;;;;8.72;80.19;96661.59;5109235;28;19926;-72
2021/05/20 05:21:36;;;;;;;;;;;;;;;8.37;81.36;96669.91;5117854;28;19931;-71
2021/05/20 05:24:02;;;;;;;;;;;;;;;8.41;81.51;96671.88;5093264;28;19993;-70
2021/05/20 05:26:28;;;;;;;;;;;;;;;8.17;82.11;96669.97;5095121;28;20378;-72
2021/05/20 05:28:53;;;;;;;;;;;;;;;8.35;81.29;96671.91;5113368;28;19951;-67
2021/05/20 05:31:22;;;;;;;;;;;;;;;8.53;81.50;96674.63;5103851;28;19920;-64
2021/05/20 05:33:51;;;;;;;;;;;;;;;8.48;80.87;96671.84;5112743;28;20021;-64
2021/05/20 05:36:17;;;;;;;;;;;;;;;8.41;80.54;96677.13;5103932;28;19954;-64
2021/05/20 05:38:43;;;;;;;;;;;;;;;8.45;80.24;96682.78;5094002;28;20378;-63
2021/05/20 05:41:08;;;;;;;;;;;;;;;8.42;79.61;96680.56;5103594;28;19930;-63
2021/05/20 05:43:33;;;;;;;;;;;;;;;8.06;81.25;96681.09;5099295;28;19920;-63
2021/05/20 05:45:59;;;;;;;;;;;;;;;7.99;82.15;96682.94;5106377;28;19920;-64
2021/05/20 05:48:24;;;;;;;;;;;;;;;7.93;81.97;96676.72;5130141;22;20015;-59
2021/05/20 05:50:52;;;;;;;;;;;;;;;8.37;80.26;96693.50;5109881;28;20247;-60
2021/05/20 05:53:18;;;;;;;;;;;;;;;8.70;79.48;96687.25;5099706;28;19966;-68
2021/05/20 05:55:43;;;;;;;;;;;;;;;8.92;79.04;96691.94;5106256;28;19926;-67
2021/05/20 05:58:09;;;;;;;;;;;;;;;9.00;78.67;96695.31;5112795;28;20026;-67
2021/05/20 06:00:35;;;;;;;;;;;;;;;8.94;77.44;96694.34;5101661;28;20401;-67
2021/05/20 06:03:00;;;;;;;;;;;;;;;9.14;77.68;96691.56;5093673;28;20387;-68
2021/05/20 06:05:26;;;;;;;;;;;;;;;9.34;76.64;96692.19;5076262;28;19962;-65
2021/05/20 06:07:51;;;;;;;;;;;;;;;9.16;78.00;96695.59;5092870;28;19927;-66
2021/05/20 06:10:20;;;;;;;;;;;;;;;9.21;78.27;96692.34;5092863;28;19927;-67
2021/05/20 06:12:45;;;;;;;;;;;;;;;9.04;77.44;96696.47;5085757;28;19948;-69
2021/05/20 06:15:11;;;;;;;;;;;;;;;9.25;76.99;96692.69;5100087;28;19928;-69
2021/05/20 06:17:37;;;;;;;;;;;;;;;9.34;77.36;96694.81;5074825;28;20437;-61
2021/05/20 06:20:03;;;;;;;;;;;;;;;9.25;77.12;96696.09;5097472;28;19920;-66
2021/05/20 06:22:28;;;;;;;;;;;;;;;9.24;76.92;96693.72;5110918;28;19951;-68
2021/05/20 06:24:53;;;;;;;;;;;;;;;9.12;77.50;96694.41;5093415;28;20360;-61
2021/05/20 06:27:20;;;;;;;;;;;;;;;9.31;76.66;96702.31;5077169;28;20298;-62
2021/05/20 06:29:45;;;;;;;;;;;;;;;9.28;76.90;96687.81;5080529;28;19927;-62
2021/05/20 06:32:10;;;;;;;;;;;;;;;10.08;76.07;96692.28;5108113;28;19919;-68
2021/05/20 06:34:36;;;;;;;;;;;;;;;10.90;73.50;96677.63;5095074;28;20279;-71
2021/05/20 06:37:02;;;;;;;;;;;;;;;11.60;69.35;96692.69;5095506;28;20338;-68
2021/05/20 06:39:30;;;;;;;;;;;;;;;11.07;69.20;96688.28;5101231;28;19966;-64
2021/05/20 06:41:56;;;;;;;;;;;;;;;10.99;67.69;96678.91;5095252;28;19927;-65
2021/05/20 06:44:22;;;;;;;;;;;;;;;11.41;67.37;96688.53;5098859;28;19919;-67
2021/05/20 06:46:48;;;;;;;;;;;;;;;11.77;66.81;96692.78;5101750;28;19938;-69
2021/05/20 06:49:13;;;;;;;;;;;;;;;12.08;66.76;96699.53;5100977;28;20014;-67
2021/05/20 06:51:39;;;;;;;;;;;;;;;12.24;65.32;96701.44;5096597;28;20034;-67
2021/05/20 06:54:04;;;;;;;;;;;;;;;12.53;64.84;96693.53;5098110;28;19973;-67
2021/05/20 06:56:30;;;;;;;;;;;;;;;13.09;62.00;96687.38;5094959;28;19924;-69
2021/05/20 07:01:45;;;;;;;;;;;;;;;13.68;60.00;96694.13;5096351;28;19927;-66
2021/05/20 07:04:11;;;;;;;;;;;;;;;14.68;56.83;96699.06;5094637;28;19977;-66
2021/05/20 07:06:36;;;;;;;;;;;;;;;14.30;56.73;96686.69;5094740;28;19920;-61
2021/05/20 07:09:02;;;;;;;;;;;;;;;14.12;56.54;96697.59;5079130;28;19963;-60
2021/05/20 07:11:29;;;;;;;;;;;;;;;14.00;57.35;96703.00;5093830;28;19920;-59
2021/05/20 07:13:57;;;;;;;;;;;;;;;13.96;56.87;96701.91;5074895;28;19945;-69
2021/05/20 07:16:24;;;;;;;;;;;;;;;13.92;56.73;96704.22;5076135;28;19985;-69
2021/05/20 07:18:51;;;;;;;;;;;;;;;13.57;56.74;96698.47;5094816;28;19931;-59
2021/05/20 07:21:17;;;;;;;;;;;;;;;14.60;54.78;96690.78;5093991;28;20315;-68
2021/05/20 07:23:42;;;;;;;;;;;;;;;15.74;50.92;96689.59;5096104;28;19920;-72
2021/05/20 07:26:07;;;;;;;;;;;;;;;14.71;52.61;96689.81;5103377;28;19920;-71
2021/05/20 07:28:33;;;;;;;;;;;;;;;14.24;54.04;96697.47;5099926;28;20048;-69
2021/05/20 07:30:58;;;;;;;;;;;;;;;13.52;56.50;96703.66;5094342;28;19963;-66
2021/05/20 07:33:27;;;;;;;;;;;;;;;14.11;54.92;96694.16;5094775;28;20379;-66
2021/05/20 07:35:54;;;;;;;;;;;;;;;13.98;55.59;96699.78;5094962;28;19966;-67
2021/05/20 07:38:19;;;;;;;;;;;;;;;13.52;55.49;96701.03;5101347;28;19980;-68
2021/05/20 07:40:45;;;;;;;;;;;;;;;13.20;54.56;96695.47;5103275;28;19924;-69
2021/05/20 07:43:10;;;;;;;;;;;;;;;14.17;52.27;96700.31;5094160;28;19927;-68
2021/05/20 07:45:36;;;;;;;;;;;;;;;14.25;52.35;96702.50;5094803;28;19974;-63
2021/05/20 07:48:01;;;;;;;;;;;;;;;14.21;53.73;96698.78;5096314;28;19927;-66
2021/05/20 07:50:27;;;;;;;;;;;;;;;13.46;54.45;96702.00;5094910;28;20432;-68
2021/05/20 07:52:53;;;;;;;;;;;;;;;13.12;56.37;96694.03;5094801;28;19935;-75
2021/05/20 07:55:18;;;;;;;;;;;;;;;12.94;57.46;96696.91;5076339;28;19955;-72
2021/05/20 07:57:44;;;;;;;;;;;;;;;12.53;58.78;96698.81;5094600;28;19927;-69
2021/05/20 08:00:14;;;;;;;;;;;;;;;12.43;59.46;96693.31;5093558;28;20335;-65
2021/05/20 08:05:21;;;;;;;;;;;;;;;12.55;58.82;96694.09;5094337;28;19920;-75
2021/05/20 08:07:55;;;;;;;;;;;;;;;12.09;60.93;96694.00;5094514;28;20352;-75
2021/05/20 08:12:50;;;;;;;;;;;;;;;11.23;71.66;96695.53;5094013;28;19962;-67
2021/05/20 08:15:15;;;;;;;;;;;;;;;11.15;71.40;96701.13;5094723;28;19924;-70
2021/05/20 08:17:41;;;;;;;;;;;;;;;10.94;73.49;96702.47;5094412;28;19973;-69
2021/05/20 08:20:10;;;;;;;;;;;;;;;11.07;72.99;96701.44;5093539;28;19927;-68
2021/05/20 08:22:37;;;;;;;;;;;;;;;10.97;71.50;96701.19;5093783;28;19920;-71
2021/05/20 08:25:05;;;;;;;;;;;;;;;11.00;75.22;96701.56;5075394;28;20394;-67
2021/05/20 08:27:34;;;;;;;;;;;;;;;11.45;68.93;96700.22;5093378;28;20020;-66
2021/05/20 08:30:00;;;;;;;;;;;;;;;11.52;68.19;96693.03;5081857;28;20436;-72
2021/05/20 08:32:25;;;;;;;;;;;;;;;11.76;66.51;96689.34;5094329;28;19928;-67
2021/05/20 08:34:51;;;;;;;;;;;;;;;11.80;66.26;96690.50;5094842;28;20390;-69
2021/05/20 08:37:19;;;;;;;;;;;;;;;11.83;65.48;96690.03;5094003;28;20371;-72
2021/05/20 08:39:44;;;;;;;;;;;;;;;11.92;64.74;96698.41;5093118;28;20105;-69
2021/05/20 08:42:10;;;;;;;;;;;;;;;11.45;65.67;96700.22;5076302;28;19943;-71
2021/05/20 08:44:36;;;;;;;;;;;;;;;10.95;66.10;96703.25;5093572;28;20365;-64
2021/05/20 08:47:02;;;;;;;;;;;;;;;10.15;66.82;96708.75;5091669;28;19920;-69
2021/05/20 08:49:27;;;;;;;;;;;;;;;9.80;73.48;96711.19;5093241;28;19920;-70
2021/05/20 08:51:53;;;;;;;;;;;;;;;9.66;72.59;96710.50;5092983;28;20321;-61
2021/05/20 08:54:21;;;;;;;;;;;;;;;9.69;73.96;96710.06;5093047;28;19924;-69
2021/05/20 08:56:47;;;;;;;;;;;;;;;9.71;69.22;96708.81;5074736;28;20110;-68
2021/05/20 08:59:15;;;;;;;;;;;;;;;10.04;70.87;96720.81;5093247;28;19927;-67
2021/05/20 09:01:46;;;;;;;;;;;;;;;10.14;68.68;96713.22;5093070;28;20399;-68
2021/05/20 09:04:11;;;;;;;;;;;;;;;10.22;71.25;96710.28;5093192;28;19920;-68
2021/05/20 09:06:38;;;;;;;;;;;;;;;10.59;69.72;96704.97;5092832;28;19978;-65
2021/05/20 09:09:04;;;;;;;;;;;;;;;10.79;72.12;96720.50;5093285;28;19920;-64
2021/05/20 09:11:30;;;;;;;;;;;;;;;10.97;71.32;96714.38;5092803;28;19919;-68
2021/05/20 09:14:02;;;;;;;;;;;;;;;11.26;69.67;96712.72;5092488;28;20018;-70
2021/05/20 09:16:28;;;;;;;;;;;;;;;12.64;65.60;96711.16;5093240;28;19927;-70
2021/05/20 09:18:59;;;;;;;;;;;;;;;13.50;64.17;96714.47;5092708;28;19956;-65
2021/05/20 09:21:25;;;;;;;;;;;;;;;13.28;64.81;96711.75;5093788;28;19923;-66
2021/05/20 09:23:50;;;;;;;;;;;;;;;12.82;64.72;96705.69;5074400;28;20291;-65
2021/05/20 09:26:16;;;;;;;;;;;;;;;13.41;61.69;96712.50;5092781;28;19947;-64
2021/05/20 09:28:43;;;;;;;;;;;;;;;13.07;58.66;96704.50;5074430;28;19927;-65
2021/05/20 09:31:08;;;;;;;;;;;;;;;13.17;57.93;96699.38;5074624;28;19920;-68
2021/05/20 09:33:34;;;;;;;;;;;;;;;13.04;55.13;96699.72;5092153;28;19977;-65
2021/05/20 09:36:00;;;;;;;;;;;;;;;13.58;57.28;96697.41;5074057;28;19927;-64
2021/05/20 09:38:27;;;;;;;;;;;;;;;13.22;60.07;96699.50;5074311;28;20430;-66
2021/05/20 09:40:56;;;;;;;;;;;;;;;13.35;59.81;96707.13;5074603;28;19920;-66
2021/05/20 09:43:23;;;;;;;;;;;;;;;13.45;61.54;96703.00;5091999;28;19943;-60
2021/05/20 09:45:52;;;;;;;;;;;;;;;13.77;58.56;96711.16;5074116;28;19970;-60
2021/05/20 09:48:20;;;;;;;;;;;;;;;13.55;57.28;96711.09;5092148;28;19931;-59
2021/05/20 09:50:46;;;;;;;;;;;;;;;13.61;57.47;96707.47;5074080;28;20019;-59
2021/05/20 09:53:14;;;;;;;;;;;;;;;13.16;57.26;96708.34;5093849;28;19952;-67
2021/05/20 09:55:50;;;;;;;;;;;;;;;13.06;57.89;96708.19;5096499;28;20407;-65
2021/05/20 09:58:16;;;;;;;;;;;;;;;13.11;55.80;96703.78;5095590;28;19973;-63
2021/05/20 10:00:42;;;;;;;;;;;;;;;12.74;57.44;96706.06;5097550;28;19924;-67
2021/05/20 10:03:08;;;;;;;;;;;;;;;12.86;58.83;96709.47;5098789;28;19920;-64
2021/05/20 10:05:35;;;;;;;;;;;;;;;12.93;61.70;96713.78;5078553;28;20374;-64
2021/05/20 10:08:01;;;;;;;;;;;;;;;12.67;62.22;96710.69;5099696;28;19936;-68
2021/05/20 10:10:27;;;;;;;;;;;;;;;12.67;60.27;96705.41;5099993;28;19946;-63
2021/05/20 10:12:53;;;;;;;;;;;;;;;12.89;58.42;96700.25;5082543;28;20015;-65
2021/05/20 10:15:19;;;;;;;;;;;;;;;13.11;57.43;96701.16;5098468;28;19954;-64
2021/05/20 10:17:48;;;;;;;;;;;;;;;13.65;56.42;96705.97;5102420;28;19935;-66
2021/05/20 10:20:14;;;;;;;;;;;;;;;13.99;55.91;96701.41;5081527;28;19934;-67
2021/05/20 10:22:40;;;;;;;;;;;;;;;14.25;53.23;96699.88;5096304;28;19943;-68
2021/05/20 10:25:06;;;;;;;;;;;;;;;14.41;52.96;96692.91;5097176;28;19924;-66
2021/05/20 10:27:33;;;;;;;;;;;;;;;14.54;52.07;96686.47;5095710;28;19920;-68
2021/05/20 10:29:59;;;;;;;;;;;;;;;14.42;51.71;96687.38;5096093;28;20373;-67
2021/05/20 10:32:25;;;;;;;;;;;;;;;14.38;50.16;96678.34;5095855;28;19927;-72
2021/05/20 10:35:03;;;;;;;;;;;;;;;14.39;50.79;96684.41;5076991;28;19958;-69
2021/05/20 10:37:37;;;;;;;;;;;;;;;14.83;49.94;96677.22;5095813;28;19941;-63
2021/05/20 10:40:04;;;;;;;;;;;;;;;15.32;50.67;96671.00;5095667;28;19966;-66
2021/05/20 10:42:34;;;;;;;;;;;;;;;15.75;49.09;96669.97;5097494;28;19920;-68
2021/05/20 10:45:19;;;;;;;;;;;;;;;15.94;47.15;96668.50;5097461;28;19938;-66
2021/05/20 10:48:10;;;;;;;;;;;;;;;15.64;47.15;96669.13;5089999;28;20283;-67
2021/05/20 10:50:55;;;;;;;;;;;;;;;15.32;47.08;96671.78;5077841;28;19927;-67
2021/05/20 10:53:35;;;;;;;;;;;;;;;14.89;48.72;96668.25;5096123;28;19912;-68
2021/05/20 10:56:00;;;;;;;;;;;;;;;14.51;49.66;96663.13;5094850;28;20440;-67
2021/05/20 10:58:30;;;;;;;;;;;;;;;14.12;54.36;96681.72;5096080;28;19950;-69
2021/05/20 11:00:57;;;;;;;;;;;;;;;13.51;58.33;96673.00;5097086;28;20371;-73
2021/05/20 11:03:49;;;;;;;;;;;;;;;12.98;61.98;96679.53;5077573;28;19926;-71
2021/05/20 11:06:14;;;;;;;;;;;;;;;12.44;66.59;96679.94;5095276;28;19920;-65
2021/05/20 11:08:52;;;;;;;;;;;;;;;12.06;65.87;96689.22;5094469;28;20018;-68
2021/05/20 11:11:22;;;;;;;;;;;;;;;11.75;68.53;96682.47;5077865;28;20003;-69
2021/05/20 11:13:48;;;;;;;;;;;;;;;11.37;71.17;96690.84;5095915;28;20341;-72
2021/05/20 11:16:14;;;;;;;;;;;;;;;11.34;70.60;96687.88;5094913;28;19963;-70
2021/05/20 11:18:41;;;;;;;;;;;;;;;11.37;74.22;96695.31;5094587;28;19927;-68
2021/05/20 11:21:07;;;;;;;;;;;;;;;10.94;73.91;96691.13;5080828;28;20011;-73
2021/05/20 11:23:34;;;;;;;;;;;;;;;10.98;73.72;96681.78;5094326;28;19954;-69
2021/05/20 11:26:04;;;;;;;;;;;;;;;10.96;74.96;96683.81;5093873;28;19924;-71
2021/05/20 11:28:37;;;;;;;;;;;;;;;10.87;76.71;96687.78;5078398;28;20012;-70
2021/05/20 11:31:03;;;;;;;;;;;;;;;10.93;75.78;96679.81;5093010;28;19957;-67
2021/05/20 11:33:36;;;;;;;;;;;;;;;10.92;75.72;96686.06;5103032;28;19928;-72
2021/05/20 11:38:29;;;;;;;;;;;;;;;11.27;75.67;96680.06;5093910;28;20371;-65
2021/05/20 11:40:55;;;;;;;;;;;;;;;11.81;79.81;96673.66;5100046;28;20184;-68
2021/05/20 11:43:27;;;;;;;;;;;;;;;12.29;76.02;96666.44;5075634;28;20387;-67
2021/05/20 11:45:55;;;;;;;;;;;;;;;12.89;78.32;96660.66;5094600;28;20390;-71
2021/05/20 11:48:24;;;;;;;;;;;;;;;13.36;70.55;96657.72;5078981;28;20418;-68
2021/05/20 11:50:49;;;;;;;;;;;;;;;13.23;72.11;96655.38;5100998;22;19925;-71
2021/05/20 11:53:15;;;;;;;;;;;;;;;13.38;72.80;96659.06;5075780;28;19939;-74
2021/05/20 11:55:42;;;;;;;;;;;;;;;13.18;68.99;96645.50;5075071;28;19920;-69
2021/05/20 11:58:07;;;;;;;;;;;;;;;13.34;66.47;96642.09;5075932;28;19942;-72
2021/05/20 12:00:33;;;;;;;;;;;;;;;13.45;65.72;96648.31;5074209;28;20458;-73
2021/05/20 12:02:58;;;;;;;;;;;;;;;13.87;64.57;96635.41;5078026;28;19920;-75
2021/05/20 12:05:25;;;;;;;;;;;;;;;14.09;62.46;96632.75;5065950;28;19927;-79
2021/05/20 12:07:51;;;;;;;;;;;;;;;14.21;58.25;96627.34;5076561;28;19927;-75
2021/05/20 12:10:17;;;;;;;;;;;;;;;14.18;60.48;96625.19;5061658;28;19920;-76
2021/05/20 12:12:45;;;;;;;;;;;;;;;14.52;57.39;96625.03;5056260;28;20035;-72
2021/05/20 12:15:15;;;;;;;;;;;;;;;14.57;57.54;96625.06;5063964;28;19921;-75
2021/05/20 12:17:41;;;;;;;;;;;;;;;14.02;56.97;96620.75;5078720;28;20378;-76
2021/05/20 12:20:07;;;;;;;;;;;;;;;13.85;57.11;96629.56;5080081;28;19920;-73
2021/05/20 12:22:33;;;;;;;;;;;;;;;13.67;58.14;96635.16;5082786;28;20015;-77
2021/05/20 12:24:59;;;;;;;;;;;;;;;13.51;61.05;96631.50;5059541;28;19920;-72
2021/05/20 12:27:26;;;;;;;;;;;;;;;13.19;64.08;96633.13;5076269;28;20294;-72
2021/05/20 12:29:52;;;;;;;;;;;;;;;13.00;63.67;96640.47;5084981;28;19915;-78
2021/05/20 12:32:28;;;;;;;;;;;;;;;13.19;64.04;96633.94;5094747;28;19951;-76
2021/05/20 12:35:06;;;;;;;;;;;;;;;13.60;62.43;96634.53;5076961;28;19947;-66
2021/05/20 12:37:39;;;;;;;;;;;;;;;13.87;59.84;96635.41;5073150;28;19920;-78
2021/05/20 12:40:08;;;;;;;;;;;;;;;14.15;61.27;96631.78;5080665;28;19927;-72
2021/05/20 12:42:33;;;;;;;;;;;;;;;14.79;58.72;96630.28;5075684;28;20011;-76
2021/05/20 12:45:02;;;;;;;;;;;;;;;15.22;54.55;96626.66;5075177;28;19928;-74
2021/05/20 12:47:28;;;;;;;;;;;;;;;15.28;54.32;96622.19;5066446;28;20355;-64
2021/05/20 12:49:55;;;;;;;;;;;;;;;15.60;52.88;96627.41;5053599;28;20387;-64
2021/05/20 12:52:20;;;;;;;;;;;;;;;15.44;50.93;96613.28;5059113;28;20007;-77
2021/05/20 12:54:47;;;;;;;;;;;;;;;14.96;50.24;96613.25;5051898;28;19963;-73
2021/05/20 12:57:12;;;;;;;;;;;;;;;14.95;51.37;96614.28;5051188;28;19975;-66
2021/05/20 12:59:39;;;;;;;;;;;;;;;14.57;50.95;96606.53;5067567;28;19924;-72